sensor_id;sensor_type;location;lat;lon;timestamp;temperature;humidity
16863;DHT22;52193;48.216;-1.698;2023-06-24T00:02:14;25.30;67.80
16863;DHT22;52193;48.216;-1.698;2023-06-24T00:04:41;25.20;68.00
16863;DHT22;52193;48.216;-1.698;2023-06-24T00:07:08;25.20;68.20
16863;DHT22;52193;48.216;-1.698;2023-06-24T00:09:35;25.20;68.30
16863;DHT22;52193;48.216;-1.698;2023-06-24T00:12:03;25.10;68.50
16863;DHT22;52193;48.216;-1.698;2023-06-24T00:14:30;25.10;68.70
16863;DHT22;52193;48.216;-1.698;2023-06-24T00:16:57;25.00;68.80
16863;DHT22;52193;48.216;-1.698;2023-06-24T00:19:26;25.10;69.00
16863;DHT22;52193;48.216;-1.698;2023-06-24T00:21:53;25.00;69.00
16863;DHT22;52193;48.216;-1.698;2023-06-24T00:24:21;25.10;69.10
16863;DHT22;52193;48.216;-1.698;2023-06-24T00:26:51;25.10;69.10
16863;DHT22;52193;48.216;-1.698;2023-06-24T00:29:18;25.10;69.40
16863;DHT22;52193;48.216;-1.698;2023-06-24T00:31:45;25.00;69.40
16863;DHT22;52193;48.216;-1.698;2023-06-24T00:34:12;24.90;69.70
16863;DHT22;52193;48.216;-1.698;2023-06-24T00:36:40;24.90;70.00
16863;DHT22;52193;48.216;-1.698;2023-06-24T00:39:09;24.80;70.10
16863;DHT22;52193;48.216;-1.698;2023-06-24T00:41:36;24.90;70.10
16863;DHT22;52193;48.216;-1.698;2023-06-24T00:44:03;24.80;70.20
16863;DHT22;52193;48.216;-1.698;2023-06-24T00:46:30;24.70;70.30
16863;DHT22;52193;48.216;-1.698;2023-06-24T00:48:59;24.70;70.50
16863;DHT22;52193;48.216;-1.698;2023-06-24T00:51:26;24.60;70.70
16863;DHT22;52193;48.216;-1.698;2023-06-24T00:53:58;24.60;71.00
16863;DHT22;52193;48.216;-1.698;2023-06-24T00:56:29;24.60;71.00
16863;DHT22;52193;48.216;-1.698;2023-06-24T00:58:57;24.60;71.10
16863;DHT22;52193;48.216;-1.698;2023-06-24T01:01:25;24.50;71.20
16863;DHT22;52193;48.216;-1.698;2023-06-24T01:03:52;24.50;71.40
16863;DHT22;52193;48.216;-1.698;2023-06-24T01:06:19;24.50;71.40
16863;DHT22;52193;48.216;-1.698;2023-06-24T01:08:47;24.50;71.50
16863;DHT22;52193;48.216;-1.698;2023-06-24T01:11:17;24.50;71.80
16863;DHT22;52193;48.216;-1.698;2023-06-24T01:13:44;24.40;71.80
16863;DHT22;52193;48.216;-1.698;2023-06-24T01:16:16;24.40;72.10
16863;DHT22;52193;48.216;-1.698;2023-06-24T01:18:48;24.40;72.30
16863;DHT22;52193;48.216;-1.698;2023-06-24T01:21:20;24.40;72.40
16863;DHT22;52193;48.216;-1.698;2023-06-24T01:27:27;24.30;72.50
16863;DHT22;52193;48.216;-1.698;2023-06-24T01:30:30;24.30;72.80
16863;DHT22;52193;48.216;-1.698;2023-06-24T01:33:04;24.30;72.90
16863;DHT22;52193;48.216;-1.698;2023-06-24T01:35:34;24.20;73.00
16863;DHT22;52193;48.216;-1.698;2023-06-24T01:38:06;24.20;73.10
16863;DHT22;52193;48.216;-1.698;2023-06-24T01:40:38;24.20;73.30
16863;DHT22;52193;48.216;-1.698;2023-06-24T01:43:08;24.20;73.40
16863;DHT22;52193;48.216;-1.698;2023-06-24T01:45:40;24.10;73.50
16863;DHT22;52193;48.216;-1.698;2023-06-24T01:48:13;24.10;73.70
16863;DHT22;52193;48.216;-1.698;2023-06-24T01:50:44;24.10;73.90
16863;DHT22;52193;48.216;-1.698;2023-06-24T01:53:12;24.10;74.00
16863;DHT22;52193;48.216;-1.698;2023-06-24T01:55:41;24.20;74.30
16863;DHT22;52193;48.216;-1.698;2023-06-24T01:58:10;24.10;74.10
16863;DHT22;52193;48.216;-1.698;2023-06-24T02:00:38;24.10;74.30
16863;DHT22;52193;48.216;-1.698;2023-06-24T02:03:08;24.00;74.40
16863;DHT22;52193;48.216;-1.698;2023-06-24T02:05:36;24.00;74.80
16863;DHT22;52193;48.216;-1.698;2023-06-24T02:08:08;23.90;74.90
16863;DHT22;52193;48.216;-1.698;2023-06-24T02:10:38;24.00;75.10
16863;DHT22;52193;48.216;-1.698;2023-06-24T02:13:07;24.00;75.30
16863;DHT22;52193;48.216;-1.698;2023-06-24T02:15:35;23.90;75.30
16863;DHT22;52193;48.216;-1.698;2023-06-24T02:18:04;23.90;75.40
16863;DHT22;52193;48.216;-1.698;2023-06-24T02:20:33;24.00;75.50
16863;DHT22;52193;48.216;-1.698;2023-06-24T02:23:01;23.90;75.60
16863;DHT22;52193;48.216;-1.698;2023-06-24T02:25:31;23.90;75.80
16863;DHT22;52193;48.216;-1.698;2023-06-24T02:27:59;24.00;75.90
16863;DHT22;52193;48.216;-1.698;2023-06-24T02:30:26;23.90;76.00
16863;DHT22;52193;48.216;-1.698;2023-06-24T02:32:53;23.90;76.20
16863;DHT22;52193;48.216;-1.698;2023-06-24T02:35:20;23.90;76.30
16863;DHT22;52193;48.216;-1.698;2023-06-24T02:37:49;23.90;76.20
16863;DHT22;52193;48.216;-1.698;2023-06-24T02:40:16;23.90;76.30
16863;DHT22;52193;48.216;-1.698;2023-06-24T02:42:43;23.90;76.40
16863;DHT22;52193;48.216;-1.698;2023-06-24T02:45:10;23.90;76.60
16863;DHT22;52193;48.216;-1.698;2023-06-24T02:47:38;23.90;76.80
16863;DHT22;52193;48.216;-1.698;2023-06-24T02:50:06;24.00;76.80
16863;DHT22;52193;48.216;-1.698;2023-06-24T02:52:34;24.00;76.80
16863;DHT22;52193;48.216;-1.698;2023-06-24T02:55:04;23.90;77.00
16863;DHT22;52193;48.216;-1.698;2023-06-24T02:57:32;23.90;77.30
16863;DHT22;52193;48.216;-1.698;2023-06-24T03:00:01;23.80;77.60
16863;DHT22;52193;48.216;-1.698;2023-06-24T03:02:29;23.70;77.90
16863;DHT22;52193;48.216;-1.698;2023-06-24T03:04:57;23.70;78.20
16863;DHT22;52193;48.216;-1.698;2023-06-24T03:07:27;23.70;78.30
16863;DHT22;52193;48.216;-1.698;2023-06-24T03:09:55;23.70;78.30
16863;DHT22;52193;48.216;-1.698;2023-06-24T03:12:25;23.70;78.40
16863;DHT22;52193;48.216;-1.698;2023-06-24T03:14:52;23.70;78.40
16863;DHT22;52193;48.216;-1.698;2023-06-24T03:17:19;23.70;78.60
16863;DHT22;52193;48.216;-1.698;2023-06-24T03:19:46;23.60;78.70
16863;DHT22;52193;48.216;-1.698;2023-06-24T03:22:12;23.60;78.70
16863;DHT22;52193;48.216;-1.698;2023-06-24T03:24:39;23.70;78.90
16863;DHT22;52193;48.216;-1.698;2023-06-24T03:27:06;23.60;78.80
16863;DHT22;52193;48.216;-1.698;2023-06-24T03:29:35;23.60;78.90
16863;DHT22;52193;48.216;-1.698;2023-06-24T03:32:02;23.60;79.10
16863;DHT22;52193;48.216;-1.698;2023-06-24T03:34:29;23.50;79.10
16863;DHT22;52193;48.216;-1.698;2023-06-24T03:36:55;23.60;79.30
16863;DHT22;52193;48.216;-1.698;2023-06-24T03:39:23;23.50;79.20
16863;DHT22;52193;48.216;-1.698;2023-06-24T03:41:49;23.60;79.40
16863;DHT22;52193;48.216;-1.698;2023-06-24T03:44:16;23.60;79.30
16863;DHT22;52193;48.216;-1.698;2023-06-24T03:46:45;23.60;79.30
16863;DHT22;52193;48.216;-1.698;2023-06-24T03:49:12;23.50;79.30
16863;DHT22;52193;48.216;-1.698;2023-06-24T03:51:38;23.50;79.60
16863;DHT22;52193;48.216;-1.698;2023-06-24T03:54:05;23.50;79.60
16863;DHT22;52193;48.216;-1.698;2023-06-24T03:56:32;23.50;79.40
16863;DHT22;52193;48.216;-1.698;2023-06-24T03:58:59;23.50;79.40
16863;DHT22;52193;48.216;-1.698;2023-06-24T04:01:26;23.50;79.40
16863;DHT22;52193;48.216;-1.698;2023-06-24T04:03:59;23.50;79.40
16863;DHT22;52193;48.216;-1.698;2023-06-24T04:06:26;23.50;79.30
16863;DHT22;52193;48.216;-1.698;2023-06-24T04:08:52;23.50;79.20
16863;DHT22;52193;48.216;-1.698;2023-06-24T04:11:20;23.40;79.10
16863;DHT22;52193;48.216;-1.698;2023-06-24T04:13:47;23.50;79.30
16863;DHT22;52193;48.216;-1.698;2023-06-24T04:16:14;23.50;79.20
16863;DHT22;52193;48.216;-1.698;2023-06-24T04:18:41;23.40;79.10
16863;DHT22;52193;48.216;-1.698;2023-06-24T04:21:10;23.50;79.20
16863;DHT22;52193;48.216;-1.698;2023-06-24T04:23:36;23.50;79.10
16863;DHT22;52193;48.216;-1.698;2023-06-24T04:26:04;23.50;79.10
16863;DHT22;52193;48.216;-1.698;2023-06-24T04:28:31;23.50;79.10
16863;DHT22;52193;48.216;-1.698;2023-06-24T04:30:58;23.50;79.00
16863;DHT22;52193;48.216;-1.698;2023-06-24T04:33:24;23.50;79.00
16863;DHT22;52193;48.216;-1.698;2023-06-24T04:35:51;23.50;79.10
16863;DHT22;52193;48.216;-1.698;2023-06-24T04:38:20;23.40;79.10
16863;DHT22;52193;48.216;-1.698;2023-06-24T04:40:47;23.40;79.20
16863;DHT22;52193;48.216;-1.698;2023-06-24T04:43:14;23.40;79.20
16863;DHT22;52193;48.216;-1.698;2023-06-24T04:45:41;23.40;79.20
16863;DHT22;52193;48.216;-1.698;2023-06-24T04:48:08;23.40;79.10
16863;DHT22;52193;48.216;-1.698;2023-06-24T04:50:34;23.40;79.10
16863;DHT22;52193;48.216;-1.698;2023-06-24T04:53:01;23.40;79.30
16863;DHT22;52193;48.216;-1.698;2023-06-24T04:55:30;23.40;79.30
16863;DHT22;52193;48.216;-1.698;2023-06-24T04:57:57;23.40;79.30
16863;DHT22;52193;48.216;-1.698;2023-06-24T05:00:23;23.40;79.20
16863;DHT22;52193;48.216;-1.698;2023-06-24T05:02:50;23.40;79.30
16863;DHT22;52193;48.216;-1.698;2023-06-24T05:05:17;23.40;79.30
16863;DHT22;52193;48.216;-1.698;2023-06-24T05:07:46;23.40;79.40
16863;DHT22;52193;48.216;-1.698;2023-06-24T05:10:12;23.50;79.40
16863;DHT22;52193;48.216;-1.698;2023-06-24T05:12:41;23.50;79.30
16863;DHT22;52193;48.216;-1.698;2023-06-24T05:15:08;23.50;79.50
16863;DHT22;52193;48.216;-1.698;2023-06-24T05:17:35;23.50;79.30
16863;DHT22;52193;48.216;-1.698;2023-06-24T05:20:02;23.50;79.40
16863;DHT22;52193;48.216;-1.698;2023-06-24T05:22:29;23.50;79.60
16863;DHT22;52193;48.216;-1.698;2023-06-24T05:24:56;23.50;79.50
16863;DHT22;52193;48.216;-1.698;2023-06-24T05:27:23;23.50;79.40
16863;DHT22;52193;48.216;-1.698;2023-06-24T05:29:52;23.50;79.60
16863;DHT22;52193;48.216;-1.698;2023-06-24T05:32:19;23.60;79.60
16863;DHT22;52193;48.216;-1.698;2023-06-24T05:34:46;23.60;79.60
16863;DHT22;52193;48.216;-1.698;2023-06-24T05:37:13;23.60;79.60
16863;DHT22;52193;48.216;-1.698;2023-06-24T05:39:40;23.60;79.60
16863;DHT22;52193;48.216;-1.698;2023-06-24T05:42:07;23.70;79.60
16863;DHT22;52193;48.216;-1.698;2023-06-24T05:44:34;23.70;79.60
16863;DHT22;52193;48.216;-1.698;2023-06-24T05:47:03;23.70;79.40
16863;DHT22;52193;48.216;-1.698;2023-06-24T05:49:30;23.70;79.50
16863;DHT22;52193;48.216;-1.698;2023-06-24T05:51:57;23.80;79.40
16863;DHT22;52193;48.216;-1.698;2023-06-24T05:54:24;23.80;80.10
16863;DHT22;52193;48.216;-1.698;2023-06-24T05:56:51;23.90;79.40
16863;DHT22;52193;48.216;-1.698;2023-06-24T05:59:17;23.90;79.20
16863;DHT22;52193;48.216;-1.698;2023-06-24T06:01:44;23.90;79.10
16863;DHT22;52193;48.216;-1.698;2023-06-24T06:04:13;24.00;79.20
16863;DHT22;52193;48.216;-1.698;2023-06-24T06:06:40;24.00;79.00
16863;DHT22;52193;48.216;-1.698;2023-06-24T06:09:06;24.00;78.90
16863;DHT22;52193;48.216;-1.698;2023-06-24T06:11:33;24.10;78.90
16863;DHT22;52193;48.216;-1.698;2023-06-24T06:14:00;24.10;78.90
16863;DHT22;52193;48.216;-1.698;2023-06-24T06:16:27;24.10;78.70
16863;DHT22;52193;48.216;-1.698;2023-06-24T06:18:54;24.20;78.70
16863;DHT22;52193;48.216;-1.698;2023-06-24T06:21:24;24.20;78.70
16863;DHT22;52193;48.216;-1.698;2023-06-24T06:23:51;24.20;78.50
16863;DHT22;52193;48.216;-1.698;2023-06-24T06:26:18;24.20;78.50
16863;DHT22;52193;48.216;-1.698;2023-06-24T06:28:45;24.30;78.50
16863;DHT22;52193;48.216;-1.698;2023-06-24T06:31:12;24.30;78.40
16863;DHT22;52193;48.216;-1.698;2023-06-24T06:33:39;24.40;78.50
16863;DHT22;52193;48.216;-1.698;2023-06-24T06:36:06;24.40;78.60
16863;DHT22;52193;48.216;-1.698;2023-06-24T06:38:35;24.40;78.60
16863;DHT22;52193;48.216;-1.698;2023-06-24T06:41:02;24.40;78.60
16863;DHT22;52193;48.216;-1.698;2023-06-24T06:43:29;24.40;78.60
16863;DHT22;52193;48.216;-1.698;2023-06-24T06:45:56;24.40;78.60
16863;DHT22;52193;48.216;-1.698;2023-06-24T06:48:23;24.40;78.60
16863;DHT22;52193;48.216;-1.698;2023-06-24T06:50:50;24.50;78.70
16863;DHT22;52193;48.216;-1.698;2023-06-24T06:53:18;24.60;78.70
16863;DHT22;52193;48.216;-1.698;2023-06-24T06:55:46;24.60;78.70
16863;DHT22;52193;48.216;-1.698;2023-06-24T06:58:13;24.60;78.70
16863;DHT22;52193;48.216;-1.698;2023-06-24T07:00:40;24.60;78.60
16863;DHT22;52193;48.216;-1.698;2023-06-24T07:03:07;24.60;78.60
16863;DHT22;52193;48.216;-1.698;2023-06-24T07:05:33;24.70;78.70
16863;DHT22;52193;48.216;-1.698;2023-06-24T07:08:00;24.70;78.70
16863;DHT22;52193;48.216;-1.698;2023-06-24T07:10:27;24.80;78.80
16863;DHT22;52193;48.216;-1.698;2023-06-24T07:12:55;24.80;78.70
16863;DHT22;52193;48.216;-1.698;2023-06-24T07:15:24;24.90;78.70
16863;DHT22;52193;48.216;-1.698;2023-06-24T07:17:51;24.90;78.70
16863;DHT22;52193;48.216;-1.698;2023-06-24T07:20:19;25.00;78.70
16863;DHT22;52193;48.216;-1.698;2023-06-24T07:22:46;25.10;78.70
16863;DHT22;52193;48.216;-1.698;2023-06-24T07:25:13;25.10;78.60
16863;DHT22;52193;48.216;-1.698;2023-06-24T07:27:40;25.20;78.60
16863;DHT22;52193;48.216;-1.698;2023-06-24T07:30:09;25.20;78.60
16863;DHT22;52193;48.216;-1.698;2023-06-24T07:32:36;25.30;78.60
16863;DHT22;52193;48.216;-1.698;2023-06-24T07:35:03;25.30;78.60
16863;DHT22;52193;48.216;-1.698;2023-06-24T07:37:30;25.40;78.60
16863;DHT22;52193;48.216;-1.698;2023-06-24T07:39:57;25.40;78.70
16863;DHT22;52193;48.216;-1.698;2023-06-24T07:42:24;25.40;78.60
16863;DHT22;52193;48.216;-1.698;2023-06-24T07:44:51;25.50;78.50
16863;DHT22;52193;48.216;-1.698;2023-06-24T07:47:19;25.50;78.40
16863;DHT22;52193;48.216;-1.698;2023-06-24T07:49:46;25.60;78.40
16863;DHT22;52193;48.216;-1.698;2023-06-24T07:52:13;25.70;78.50
16863;DHT22;52193;48.216;-1.698;2023-06-24T07:54:41;25.70;78.40
16863;DHT22;52193;48.216;-1.698;2023-06-24T07:57:08;25.80;78.40
16863;DHT22;52193;48.216;-1.698;2023-06-24T07:59:35;25.80;78.30
16863;DHT22;52193;48.216;-1.698;2023-06-24T08:02:02;25.90;78.20
16863;DHT22;52193;48.216;-1.698;2023-06-24T08:04:30;25.90;78.20
16863;DHT22;52193;48.216;-1.698;2023-06-24T08:06:57;26.00;78.20
16863;DHT22;52193;48.216;-1.698;2023-06-24T08:09:24;26.00;78.10
16863;DHT22;52193;48.216;-1.698;2023-06-24T08:11:51;26.10;78.10
16863;DHT22;52193;48.216;-1.698;2023-06-24T08:14:18;26.20;78.00
16863;DHT22;52193;48.216;-1.698;2023-06-24T08:16:45;26.20;77.90
16863;DHT22;52193;48.216;-1.698;2023-06-24T08:19:12;26.20;77.80
16863;DHT22;52193;48.216;-1.698;2023-06-24T08:21:41;26.30;77.80
16863;DHT22;52193;48.216;-1.698;2023-06-24T08:24:07;26.40;77.80
16863;DHT22;52193;48.216;-1.698;2023-06-24T08:26:34;26.40;77.60
16863;DHT22;52193;48.216;-1.698;2023-06-24T08:29:01;26.40;77.50
16863;DHT22;52193;48.216;-1.698;2023-06-24T08:31:28;26.50;77.50
16863;DHT22;52193;48.216;-1.698;2023-06-24T08:33:59;26.60;77.50
16863;DHT22;52193;48.216;-1.698;2023-06-24T08:36:28;26.70;77.30
16863;DHT22;52193;48.216;-1.698;2023-06-24T08:38:56;26.70;77.20
16863;DHT22;52193;48.216;-1.698;2023-06-24T08:41:23;26.80;77.20
16863;DHT22;52193;48.216;-1.698;2023-06-24T08:43:52;26.90;77.10
16863;DHT22;52193;48.216;-1.698;2023-06-24T08:46:19;26.90;77.10
16863;DHT22;52193;48.216;-1.698;2023-06-24T08:48:48;26.90;76.90
16863;DHT22;52193;48.216;-1.698;2023-06-24T08:51:18;27.00;76.90
16863;DHT22;52193;48.216;-1.698;2023-06-24T08:53:48;27.00;76.80
16863;DHT22;52193;48.216;-1.698;2023-06-24T08:56:16;27.10;76.70
16863;DHT22;52193;48.216;-1.698;2023-06-24T08:58:44;27.20;76.60
16863;DHT22;52193;48.216;-1.698;2023-06-24T09:01:11;27.20;76.40
16863;DHT22;52193;48.216;-1.698;2023-06-24T09:03:38;27.30;76.30
16863;DHT22;52193;48.216;-1.698;2023-06-24T09:06:05;27.30;76.10
16863;DHT22;52193;48.216;-1.698;2023-06-24T09:08:32;27.40;76.00
16863;DHT22;52193;48.216;-1.698;2023-06-24T09:11:01;27.40;75.80
16863;DHT22;52193;48.216;-1.698;2023-06-24T09:13:35;27.40;75.70
16863;DHT22;52193;48.216;-1.698;2023-06-24T09:16:12;27.60;75.90
16863;DHT22;52193;48.216;-1.698;2023-06-24T09:18:40;27.60;75.80
16863;DHT22;52193;48.216;-1.698;2023-06-24T09:21:07;27.70;75.60
16863;DHT22;52193;48.216;-1.698;2023-06-24T09:23:37;27.70;75.50
16863;DHT22;52193;48.216;-1.698;2023-06-24T09:26:09;27.70;75.30
16863;DHT22;52193;48.216;-1.698;2023-06-24T09:28:39;27.80;75.20
16863;DHT22;52193;48.216;-1.698;2023-06-24T09:31:06;27.90;75.10
16863;DHT22;52193;48.216;-1.698;2023-06-24T09:33:33;27.90;75.10
16863;DHT22;52193;48.216;-1.698;2023-06-24T09:36:02;27.90;75.10
16863;DHT22;52193;48.216;-1.698;2023-06-24T09:38:34;28.00;74.90
16863;DHT22;52193;48.216;-1.698;2023-06-24T09:41:03;28.10;74.70
16863;DHT22;52193;48.216;-1.698;2023-06-24T09:43:30;28.10;74.30
16863;DHT22;52193;48.216;-1.698;2023-06-24T09:45:59;28.10;73.90
16863;DHT22;52193;48.216;-1.698;2023-06-24T09:48:27;28.20;73.80
16863;DHT22;52193;48.216;-1.698;2023-06-24T09:50:55;28.20;73.60
16863;DHT22;52193;48.216;-1.698;2023-06-24T09:53:26;28.30;73.60
16863;DHT22;52193;48.216;-1.698;2023-06-24T09:55:53;28.40;73.60
16863;DHT22;52193;48.216;-1.698;2023-06-24T09:58:20;28.50;73.20
16863;DHT22;52193;48.216;-1.698;2023-06-24T10:00:48;28.50;72.70
16863;DHT22;52193;48.216;-1.698;2023-06-24T10:03:18;28.60;72.40
16863;DHT22;52193;48.216;-1.698;2023-06-24T10:05:46;28.70;71.70
16863;DHT22;52193;48.216;-1.698;2023-06-24T10:08:14;28.70;71.40
16863;DHT22;52193;48.216;-1.698;2023-06-24T10:10:40;28.70;71.00
16863;DHT22;52193;48.216;-1.698;2023-06-24T10:13:08;28.80;70.80
16863;DHT22;52193;48.216;-1.698;2023-06-24T10:15:35;28.80;70.50
16863;DHT22;52193;48.216;-1.698;2023-06-24T10:18:03;28.90;70.70
16863;DHT22;52193;48.216;-1.698;2023-06-24T10:20:36;28.90;70.60
16863;DHT22;52193;48.216;-1.698;2023-06-24T10:23:06;29.00;70.60
16863;DHT22;52193;48.216;-1.698;2023-06-24T10:25:36;29.10;70.50
16863;DHT22;52193;48.216;-1.698;2023-06-24T10:28:03;29.20;70.20
16863;DHT22;52193;48.216;-1.698;2023-06-24T10:30:30;29.20;69.60
16863;DHT22;52193;48.216;-1.698;2023-06-24T10:32:58;29.20;69.40
16863;DHT22;52193;48.216;-1.698;2023-06-24T10:35:26;29.30;69.20
16863;DHT22;52193;48.216;-1.698;2023-06-24T10:37:58;29.30;68.90
16863;DHT22;52193;48.216;-1.698;2023-06-24T10:40:36;29.30;68.60
16863;DHT22;52193;48.216;-1.698;2023-06-24T10:43:27;29.50;69.00
16863;DHT22;52193;48.216;-1.698;2023-06-24T10:45:56;29.50;69.20
16863;DHT22;52193;48.216;-1.698;2023-06-24T10:48:23;29.60;68.90
16863;DHT22;52193;48.216;-1.698;2023-06-24T10:50:50;29.60;68.50
16863;DHT22;52193;48.216;-1.698;2023-06-24T10:53:18;29.70;68.20
16863;DHT22;52193;48.216;-1.698;2023-06-24T10:55:45;29.70;67.70
16863;DHT22;52193;48.216;-1.698;2023-06-24T10:58:14;29.70;67.70
16863;DHT22;52193;48.216;-1.698;2023-06-24T11:00:42;29.80;67.70
16863;DHT22;52193;48.216;-1.698;2023-06-24T11:03:12;29.90;67.80
16863;DHT22;52193;48.216;-1.698;2023-06-24T11:05:40;29.90;67.40
16863;DHT22;52193;48.216;-1.698;2023-06-24T11:08:07;30.00;67.20
16863;DHT22;52193;48.216;-1.698;2023-06-24T11:10:44;30.00;67.20
16863;DHT22;52193;48.216;-1.698;2023-06-24T11:13:11;30.10;67.60
16863;DHT22;52193;48.216;-1.698;2023-06-24T11:15:39;30.20;67.70
16863;DHT22;52193;48.216;-1.698;2023-06-24T11:18:08;30.20;67.10
16863;DHT22;52193;48.216;-1.698;2023-06-24T11:20:36;30.30;66.90
16863;DHT22;52193;48.216;-1.698;2023-06-24T11:23:06;30.30;66.70
16863;DHT22;52193;48.216;-1.698;2023-06-24T11:25:38;30.40;66.50
16863;DHT22;52193;48.216;-1.698;2023-06-24T11:28:14;30.40;66.00
16863;DHT22;52193;48.216;-1.698;2023-06-24T11:30:41;30.50;65.70
16863;DHT22;52193;48.216;-1.698;2023-06-24T11:33:08;30.60;65.90
16863;DHT22;52193;48.216;-1.698;2023-06-24T11:35:35;30.80;66.00
16863;DHT22;52193;48.216;-1.698;2023-06-24T11:38:03;30.80;65.80
16863;DHT22;52193;48.216;-1.698;2023-06-24T11:40:31;31.00;65.80
16863;DHT22;52193;48.216;-1.698;2023-06-24T11:43:00;31.00;65.60
16863;DHT22;52193;48.216;-1.698;2023-06-24T11:45:29;31.20;65.50
16863;DHT22;52193;48.216;-1.698;2023-06-24T11:48:02;31.40;65.40
16863;DHT22;52193;48.216;-1.698;2023-06-24T11:50:31;31.50;64.80
16863;DHT22;52193;48.216;-1.698;2023-06-24T11:52:58;31.80;64.40
16863;DHT22;52193;48.216;-1.698;2023-06-24T11:55:27;32.10;64.00
16863;DHT22;52193;48.216;-1.698;2023-06-24T11:57:56;32.40;63.30
16863;DHT22;52193;48.216;-1.698;2023-06-24T12:00:24;32.80;62.70
16863;DHT22;52193;48.216;-1.698;2023-06-24T12:02:55;33.10;62.30
16863;DHT22;52193;48.216;-1.698;2023-06-24T12:05:27;33.60;61.40
16863;DHT22;52193;48.216;-1.698;2023-06-24T12:07:56;34.00;60.40
16863;DHT22;52193;48.216;-1.698;2023-06-24T12:10:23;34.40;59.70
16863;DHT22;52193;48.216;-1.698;2023-06-24T12:12:50;34.80;59.30
16863;DHT22;52193;48.216;-1.698;2023-06-24T12:15:17;35.30;59.20
16863;DHT22;52193;48.216;-1.698;2023-06-24T12:17:44;35.80;58.90
16863;DHT22;52193;48.216;-1.698;2023-06-24T12:20:13;36.30;58.50
16863;DHT22;52193;48.216;-1.698;2023-06-24T12:22:41;36.80;58.40
16863;DHT22;52193;48.216;-1.698;2023-06-24T12:25:09;37.30;56.90
16863;DHT22;52193;48.216;-1.698;2023-06-24T12:27:37;37.80;56.30
16863;DHT22;52193;48.216;-1.698;2023-06-24T12:30:06;38.40;55.80
16863;DHT22;52193;48.216;-1.698;2023-06-24T12:32:33;38.90;54.70
16863;DHT22;52193;48.216;-1.698;2023-06-24T12:35:00;39.60;54.10
16863;DHT22;52193;48.216;-1.698;2023-06-24T12:37:30;40.20;53.70
16863;DHT22;52193;48.216;-1.698;2023-06-24T12:39:58;40.70;52.40
16863;DHT22;52193;48.216;-1.698;2023-06-24T12:42:25;41.20;51.50
16863;DHT22;52193;48.216;-1.698;2023-06-24T12:44:52;41.90;51.30
16863;DHT22;52193;48.216;-1.698;2023-06-24T12:47:20;42.70;51.30
16863;DHT22;52193;48.216;-1.698;2023-06-24T12:49:47;43.30;49.70
16863;DHT22;52193;48.216;-1.698;2023-06-24T12:52:14;43.80;49.20
16863;DHT22;52193;48.216;-1.698;2023-06-24T12:54:43;44.30;48.30
16863;DHT22;52193;48.216;-1.698;2023-06-24T12:57:09;44.80;48.10
16863;DHT22;52193;48.216;-1.698;2023-06-24T12:59:36;45.30;47.70
16863;DHT22;52193;48.216;-1.698;2023-06-24T13:02:04;45.80;47.50
16863;DHT22;52193;48.216;-1.698;2023-06-24T13:04:31;46.40;47.20
16863;DHT22;52193;48.216;-1.698;2023-06-24T13:06:58;46.90;46.70
16863;DHT22;52193;48.216;-1.698;2023-06-24T13:09:25;47.50;46.40
16863;DHT22;52193;48.216;-1.698;2023-06-24T13:11:53;48.20;45.60
16863;DHT22;52193;48.216;-1.698;2023-06-24T13:14:20;48.70;44.70
16863;DHT22;52193;48.216;-1.698;2023-06-24T13:16:47;49.50;44.30
16863;DHT22;52193;48.216;-1.698;2023-06-24T13:19:14;50.40;44.00
16863;DHT22;52193;48.216;-1.698;2023-06-24T13:21:41;51.50;43.30
16863;DHT22;52193;48.216;-1.698;2023-06-24T13:24:08;52.40;42.50
16863;DHT22;52193;48.216;-1.698;2023-06-24T13:26:35;53.10;42.00
16863;DHT22;52193;48.216;-1.698;2023-06-24T13:29:03;54.00;41.60
16863;DHT22;52193;48.216;-1.698;2023-06-24T13:31:30;54.80;40.90
16863;DHT22;52193;48.216;-1.698;2023-06-24T13:33:57;55.50;40.50
16863;DHT22;52193;48.216;-1.698;2023-06-24T13:36:32;56.10;40.00
16863;DHT22;52193;48.216;-1.698;2023-06-24T13:39:01;56.90;39.30
16863;DHT22;52193;48.216;-1.698;2023-06-24T13:41:28;57.50;38.70
16863;DHT22;52193;48.216;-1.698;2023-06-24T13:43:58;58.20;38.30
16863;DHT22;52193;48.216;-1.698;2023-06-24T13:46:27;59.00;37.90
16863;DHT22;52193;48.216;-1.698;2023-06-24T13:48:54;59.40;37.30
16863;DHT22;52193;48.216;-1.698;2023-06-24T13:51:22;59.90;36.70
16863;DHT22;52193;48.216;-1.698;2023-06-24T13:53:50;60.30;36.50
16863;DHT22;52193;48.216;-1.698;2023-06-24T13:56:18;60.60;36.10
16863;DHT22;52193;48.216;-1.698;2023-06-24T13:58:45;60.90;36.00
16863;DHT22;52193;48.216;-1.698;2023-06-24T14:01:12;61.10;35.60
16863;DHT22;52193;48.216;-1.698;2023-06-24T14:03:40;61.00;35.20
16863;DHT22;52193;48.216;-1.698;2023-06-24T14:06:08;61.00;35.00
16863;DHT22;52193;48.216;-1.698;2023-06-24T14:08:35;60.80;34.60
16863;DHT22;52193;48.216;-1.698;2023-06-24T14:11:02;60.60;34.10
16863;DHT22;52193;48.216;-1.698;2023-06-24T14:13:30;60.50;34.30
16863;DHT22;52193;48.216;-1.698;2023-06-24T14:15:57;60.50;34.20
16863;DHT22;52193;48.216;-1.698;2023-06-24T14:18:24;60.20;33.90
16863;DHT22;52193;48.216;-1.698;2023-06-24T14:20:52;59.60;33.60
16863;DHT22;52193;48.216;-1.698;2023-06-24T14:23:19;59.60;33.90
16863;DHT22;52193;48.216;-1.698;2023-06-24T14:25:46;59.20;34.10
16863;DHT22;52193;48.216;-1.698;2023-06-24T14:28:13;59.00;34.20
16863;DHT22;52193;48.216;-1.698;2023-06-24T14:30:40;58.80;34.30
16863;DHT22;52193;48.216;-1.698;2023-06-24T14:33:07;58.80;34.30
16863;DHT22;52193;48.216;-1.698;2023-06-24T14:35:34;58.60;34.20
16863;DHT22;52193;48.216;-1.698;2023-06-24T14:38:03;58.20;34.20
16863;DHT22;52193;48.216;-1.698;2023-06-24T14:40:30;57.80;34.10
16863;DHT22;52193;48.216;-1.698;2023-06-24T14:42:57;57.70;34.20
16863;DHT22;52193;48.216;-1.698;2023-06-24T14:45:24;57.50;34.20
16863;DHT22;52193;48.216;-1.698;2023-06-24T14:47:51;57.10;34.40
16863;DHT22;52193;48.216;-1.698;2023-06-24T14:50:18;56.80;34.50
16863;DHT22;52193;48.216;-1.698;2023-06-24T14:52:45;56.50;34.80
16863;DHT22;52193;48.216;-1.698;2023-06-24T14:55:13;55.90;34.90
16863;DHT22;52193;48.216;-1.698;2023-06-24T14:57:40;55.60;35.20
16863;DHT22;52193;48.216;-1.698;2023-06-24T15:00:08;55.40;35.20
16863;DHT22;52193;48.216;-1.698;2023-06-24T15:02:35;55.10;35.30
16863;DHT22;52193;48.216;-1.698;2023-06-24T15:05:02;54.70;35.20
16863;DHT22;52193;48.216;-1.698;2023-06-24T15:07:29;54.50;35.50
16863;DHT22;52193;48.216;-1.698;2023-06-24T15:09:56;54.30;35.70
16863;DHT22;52193;48.216;-1.698;2023-06-24T15:12:24;54.10;35.70
16863;DHT22;52193;48.216;-1.698;2023-06-24T15:14:51;53.90;35.60
16863;DHT22;52193;48.216;-1.698;2023-06-24T15:17:18;53.40;35.40
16863;DHT22;52193;48.216;-1.698;2023-06-24T15:19:45;53.20;35.40
16863;DHT22;52193;48.216;-1.698;2023-06-24T15:22:12;52.90;35.50
16863;DHT22;52193;48.216;-1.698;2023-06-24T15:24:39;52.80;35.90